Occoquan, Virginia
Current Conditions -  °F | °C
As of 5:58 PM on Wednesday 22 Oct 2014 (Local Time) from KDAA Reporting Station
Overcast Overcast  
Wind Chill: 55°   Ceiling: 4100
Heat Index: 55°   Visibility: 10mi
Dew Point: 49°   Wind: 10mph
Humidity: 81%   Direction: 320°NW
Pressure: 29.94"   Gusts: 18mph
Location:  38.68°N, 77.26°W
Report Text: KDAA 222158Z AUTO 32009G16KT 10SM OVC041 13/10 A2994 RMK AO2 RAE2132 SLPNO P0001 T01270096
Loading
Personal Weather Stations






























Interactive Weather Map
Tropical Storm Tracking
New forecast layout! Learn more

10-Day Weather Forecast

Advertisements
Track Severe Weather on mobile